sensor_id;sensor_type;location;lat;lon;timestamp;P1;durP1;ratioP1;P2;durP2;ratioP2
35648;SDS011;21768;48.562;13.414;2022-10-17T00:01:00;242.52;;;5.68;;
35648;SDS011;21768;48.562;13.414;2022-10-17T00:03:26;329.48;;;6.82;;
35648;SDS011;21768;48.562;13.414;2022-10-17T00:05:52;160.20;;;5.38;;
35648;SDS011;21768;48.562;13.414;2022-10-17T00:08:18;174.23;;;5.13;;
35648;SDS011;21768;48.562;13.414;2022-10-17T00:10:43;151.57;;;4.40;;
35648;SDS011;21768;48.562;13.414;2022-10-17T00:13:09;118.85;;;4.22;;
35648;SDS011;21768;48.562;13.414;2022-10-17T00:15:35;187.35;;;4.53;;
35648;SDS011;21768;48.562;13.414;2022-10-17T00:18:01;56.38;;;3.28;;
35648;SDS011;21768;48.562;13.414;2022-10-17T00:20:26;33.28;;;3.08;;
35648;SDS011;21768;48.562;13.414;2022-10-17T00:22:51;63.80;;;3.17;;
35648;SDS011;21768;48.562;13.414;2022-10-17T00:25:17;82.03;;;3.13;;
35648;SDS011;21768;48.562;13.414;2022-10-17T00:27:43;18.83;;;2.70;;
35648;SDS011;21768;48.562;13.414;2022-10-17T00:30:10;49.90;;;2.97;;
35648;SDS011;21768;48.562;13.414;2022-10-17T00:32:37;42.03;;;2.97;;
35648;SDS011;21768;48.562;13.414;2022-10-17T00:35:03;14.30;;;3.00;;
35648;SDS011;21768;48.562;13.414;2022-10-17T00:37:29;48.70;;;2.53;;
35648;SDS011;21768;48.562;13.414;2022-10-17T00:39:55;66.13;;;3.00;;
35648;SDS011;21768;48.562;13.414;2022-10-17T00:42:20;64.25;;;2.78;;
35648;SDS011;21768;48.562;13.414;2022-10-17T00:47:14;52.85;;;3.22;;
35648;SDS011;21768;48.562;13.414;2022-10-17T00:49:43;36.45;;;2.92;;
35648;SDS011;21768;48.562;13.414;2022-10-17T00:52:13;37.88;;;2.78;;
35648;SDS011;21768;48.562;13.414;2022-10-17T00:54:44;27.80;;;2.25;;
35648;SDS011;21768;48.562;13.414;2022-10-17T00:57:13;29.48;;;2.38;;
35648;SDS011;21768;48.562;13.414;2022-10-17T00:59:40;27.73;;;2.40;;
35648;SDS011;21768;48.562;13.414;2022-10-17T01:02:09;25.42;;;2.85;;
35648;SDS011;21768;48.562;13.414;2022-10-17T01:04:38;31.80;;;2.40;;
35648;SDS011;21768;48.562;13.414;2022-10-17T01:07:06;8.25;;;2.40;;
35648;SDS011;21768;48.562;13.414;2022-10-17T01:09:31;15.02;;;2.50;;
35648;SDS011;21768;48.562;13.414;2022-10-17T01:14:37;11.95;;;1.70;;
35648;SDS011;21768;48.562;13.414;2022-10-17T01:22:52;7.93;;;1.50;;
35648;SDS011;21768;48.562;13.414;2022-10-17T01:30:58;4.50;;;1.73;;
35648;SDS011;21768;48.562;13.414;2022-10-17T01:35:58;7.82;;;1.88;;
35648;SDS011;21768;48.562;13.414;2022-10-17T01:38:32;4.68;;;1.85;;
35648;SDS011;21768;48.562;13.414;2022-10-17T01:41:09;6.40;;;1.50;;
35648;SDS011;21768;48.562;13.414;2022-10-17T01:43:48;4.60;;;1.77;;
35648;SDS011;21768;48.562;13.414;2022-10-17T01:49:11;5.15;;;1.67;;
35648;SDS011;21768;48.562;13.414;2022-10-17T01:51:44;9.82;;;1.73;;
35648;SDS011;21768;48.562;13.414;2022-10-17T01:54:14;12.77;;;1.70;;
35648;SDS011;21768;48.562;13.414;2022-10-17T01:56:45;2.05;;;1.70;;
35648;SDS011;21768;48.562;13.414;2022-10-17T01:59:17;5.88;;;1.92;;
35648;SDS011;21768;48.562;13.414;2022-10-17T02:01:47;12.75;;;2.38;;
35648;SDS011;21768;48.562;13.414;2022-10-17T02:04:16;7.30;;;1.42;;
35648;SDS011;21768;48.562;13.414;2022-10-17T02:06:41;13.20;;;1.85;;
35648;SDS011;21768;48.562;13.414;2022-10-17T02:09:17;9.20;;;2.22;;
35648;SDS011;21768;48.562;13.414;2022-10-17T02:20:12;9.88;;;1.70;;
35648;SDS011;21768;48.562;13.414;2022-10-17T02:22:51;2.10;;;1.63;;
35648;SDS011;21768;48.562;13.414;2022-10-17T02:27:52;9.45;;;1.83;;
35648;SDS011;21768;48.562;13.414;2022-10-17T02:30:35;7.28;;;2.67;;
35648;SDS011;21768;48.562;13.414;2022-10-17T02:33:22;2.13;;;1.30;;
35648;SDS011;21768;48.562;13.414;2022-10-17T02:35:57;5.68;;;1.25;;
35648;SDS011;21768;48.562;13.414;2022-10-17T02:38:26;3.92;;;1.80;;
35648;SDS011;21768;48.562;13.414;2022-10-17T02:40:54;1.35;;;1.00;;
35648;SDS011;21768;48.562;13.414;2022-10-17T02:43:20;8.55;;;0.90;;
35648;SDS011;21768;48.562;13.414;2022-10-17T02:45:47;8.18;;;1.30;;
35648;SDS011;21768;48.562;13.414;2022-10-17T02:48:19;4.70;;;1.02;;
35648;SDS011;21768;48.562;13.414;2022-10-17T02:51:06;12.38;;;1.13;;
35648;SDS011;21768;48.562;13.414;2022-10-17T02:56:16;13.18;;;1.20;;
35648;SDS011;21768;48.562;13.414;2022-10-17T02:58:44;4.57;;;1.10;;
35648;SDS011;21768;48.562;13.414;2022-10-17T03:01:13;2.88;;;1.40;;
35648;SDS011;21768;48.562;13.414;2022-10-17T03:03:40;5.05;;;0.88;;
35648;SDS011;21768;48.562;13.414;2022-10-17T03:06:05;4.75;;;0.90;;
35648;SDS011;21768;48.562;13.414;2022-10-17T03:08:31;4.40;;;0.90;;
35648;SDS011;21768;48.562;13.414;2022-10-17T03:10:56;21.40;;;1.13;;
35648;SDS011;21768;48.562;13.414;2022-10-17T03:13:22;7.28;;;1.10;;
35648;SDS011;21768;48.562;13.414;2022-10-17T03:15:47;6.55;;;1.00;;
35648;SDS011;21768;48.562;13.414;2022-10-17T03:18:13;5.97;;;1.17;;
35648;SDS011;21768;48.562;13.414;2022-10-17T03:20:38;3.78;;;1.08;;
35648;SDS011;21768;48.562;13.414;2022-10-17T03:23:03;1.30;;;0.90;;
35648;SDS011;21768;48.562;13.414;2022-10-17T03:25:29;5.28;;;1.35;;
35648;SDS011;21768;48.562;13.414;2022-10-17T03:27:56;6.43;;;1.10;;
35648;SDS011;21768;48.562;13.414;2022-10-17T03:30:24;12.02;;;1.38;;
35648;SDS011;21768;48.562;13.414;2022-10-17T03:32:49;8.65;;;1.73;;
35648;SDS011;21768;48.562;13.414;2022-10-17T03:35:15;24.88;;;1.23;;
35648;SDS011;21768;48.562;13.414;2022-10-17T03:37:40;19.20;;;1.20;;
35648;SDS011;21768;48.562;13.414;2022-10-17T03:40:06;39.00;;;1.40;;
35648;SDS011;21768;48.562;13.414;2022-10-17T03:42:31;70.15;;;2.28;;
35648;SDS011;21768;48.562;13.414;2022-10-17T03:44:57;74.18;;;2.13;;
35648;SDS011;21768;48.562;13.414;2022-10-17T03:47:22;88.78;;;2.20;;
35648;SDS011;21768;48.562;13.414;2022-10-17T03:49:47;120.00;;;2.72;;
35648;SDS011;21768;48.562;13.414;2022-10-17T03:52:13;139.13;;;2.75;;
35648;SDS011;21768;48.562;13.414;2022-10-17T03:54:39;86.07;;;2.40;;
35648;SDS011;21768;48.562;13.414;2022-10-17T03:57:05;191.63;;;4.03;;
35648;SDS011;21768;48.562;13.414;2022-10-17T03:59:30;204.13;;;3.80;;
35648;SDS011;21768;48.562;13.414;2022-10-17T04:01:56;111.85;;;6.40;;
35648;SDS011;21768;48.562;13.414;2022-10-17T04:04:21;158.38;;;4.88;;
35648;SDS011;21768;48.562;13.414;2022-10-17T04:06:46;258.98;;;4.35;;
35648;SDS011;21768;48.562;13.414;2022-10-17T04:09:12;108.25;;;2.75;;
35648;SDS011;21768;48.562;13.414;2022-10-17T04:11:37;123.78;;;2.50;;
35648;SDS011;21768;48.562;13.414;2022-10-17T04:14:03;108.53;;;3.03;;
35648;SDS011;21768;48.562;13.414;2022-10-17T04:16:28;112.35;;;2.72;;
35648;SDS011;21768;48.562;13.414;2022-10-17T04:18:54;75.35;;;2.10;;
35648;SDS011;21768;48.562;13.414;2022-10-17T04:21:21;58.92;;;1.75;;
35648;SDS011;21768;48.562;13.414;2022-10-17T04:23:51;8.75;;;1.23;;
35648;SDS011;21768;48.562;13.414;2022-10-17T04:26:24;31.75;;;1.42;;
35648;SDS011;21768;48.562;13.414;2022-10-17T04:28:50;41.88;;;1.88;;
35648;SDS011;21768;48.562;13.414;2022-10-17T04:31:15;84.22;;;1.92;;
35648;SDS011;21768;48.562;13.414;2022-10-17T04:33:41;148.30;;;3.15;;
35648;SDS011;21768;48.562;13.414;2022-10-17T04:36:09;144.15;;;2.88;;
35648;SDS011;21768;48.562;13.414;2022-10-17T04:38:36;110.38;;;2.63;;
35648;SDS011;21768;48.562;13.414;2022-10-17T04:41:03;85.30;;;2.40;;
35648;SDS011;21768;48.562;13.414;2022-10-17T04:43:34;117.75;;;2.53;;
35648;SDS011;21768;48.562;13.414;2022-10-17T04:46:01;106.13;;;2.45;;
35648;SDS011;21768;48.562;13.414;2022-10-17T04:48:28;101.07;;;2.88;;
35648;SDS011;21768;48.562;13.414;2022-10-17T04:53:24;133.20;;;2.97;;
35648;SDS011;21768;48.562;13.414;2022-10-17T04:55:51;83.75;;;2.13;;
35648;SDS011;21768;48.562;13.414;2022-10-17T04:58:16;73.80;;;2.25;;
35648;SDS011;21768;48.562;13.414;2022-10-17T05:00:42;44.42;;;1.92;;
35648;SDS011;21768;48.562;13.414;2022-10-17T05:03:07;102.43;;;2.53;;
35648;SDS011;21768;48.562;13.414;2022-10-17T05:05:35;75.63;;;2.40;;
35648;SDS011;21768;48.562;13.414;2022-10-17T05:08:02;51.88;;;1.95;;
35648;SDS011;21768;48.562;13.414;2022-10-17T05:10:28;19.98;;;1.75;;
35648;SDS011;21768;48.562;13.414;2022-10-17T05:12:53;37.28;;;1.67;;
35648;SDS011;21768;48.562;13.414;2022-10-17T05:15:19;17.05;;;1.80;;
35648;SDS011;21768;48.562;13.414;2022-10-17T05:17:44;17.67;;;1.67;;
35648;SDS011;21768;48.562;13.414;2022-10-17T05:20:10;35.60;;;2.17;;
35648;SDS011;21768;48.562;13.414;2022-10-17T05:22:35;55.88;;;3.22;;
35648;SDS011;21768;48.562;13.414;2022-10-17T05:25:01;43.45;;;2.60;;
35648;SDS011;21768;48.562;13.414;2022-10-17T05:27:26;39.80;;;2.53;;
35648;SDS011;21768;48.562;13.414;2022-10-17T05:29:52;45.92;;;2.65;;
35648;SDS011;21768;48.562;13.414;2022-10-17T05:32:17;41.60;;;2.10;;
35648;SDS011;21768;48.562;13.414;2022-10-17T05:34:42;33.85;;;2.72;;
35648;SDS011;21768;48.562;13.414;2022-10-17T05:37:08;33.47;;;2.85;;
35648;SDS011;21768;48.562;13.414;2022-10-17T05:39:33;28.33;;;2.55;;
35648;SDS011;21768;48.562;13.414;2022-10-17T05:41:58;51.72;;;2.70;;
35648;SDS011;21768;48.562;13.414;2022-10-17T05:44:24;64.95;;;3.25;;
35648;SDS011;21768;48.562;13.414;2022-10-17T05:46:49;87.80;;;3.30;;
35648;SDS011;21768;48.562;13.414;2022-10-17T05:49:15;50.42;;;3.28;;
35648;SDS011;21768;48.562;13.414;2022-10-17T05:51:41;24.00;;;2.47;;
35648;SDS011;21768;48.562;13.414;2022-10-17T05:54:06;64.13;;;3.55;;
35648;SDS011;21768;48.562;13.414;2022-10-17T05:56:32;54.10;;;2.85;;
35648;SDS011;21768;48.562;13.414;2022-10-17T05:58:59;58.83;;;3.78;;
35648;SDS011;21768;48.562;13.414;2022-10-17T06:01:25;55.67;;;3.08;;
35648;SDS011;21768;48.562;13.414;2022-10-17T06:03:50;74.88;;;3.90;;
35648;SDS011;21768;48.562;13.414;2022-10-17T06:06:16;45.80;;;3.47;;
35648;SDS011;21768;48.562;13.414;2022-10-17T06:08:42;39.67;;;3.92;;
35648;SDS011;21768;48.562;13.414;2022-10-17T06:11:07;60.10;;;4.00;;
35648;SDS011;21768;48.562;13.414;2022-10-17T06:13:33;64.50;;;4.32;;
35648;SDS011;21768;48.562;13.414;2022-10-17T06:15:58;20.60;;;3.63;;
35648;SDS011;21768;48.562;13.414;2022-10-17T06:18:24;88.88;;;6.13;;
35648;SDS011;21768;48.562;13.414;2022-10-17T06:20:50;51.97;;;3.95;;
35648;SDS011;21768;48.562;13.414;2022-10-17T06:23:16;43.83;;;4.32;;
35648;SDS011;21768;48.562;13.414;2022-10-17T06:25:41;32.70;;;4.18;;
35648;SDS011;21768;48.562;13.414;2022-10-17T06:28:07;70.13;;;4.82;;
35648;SDS011;21768;48.562;13.414;2022-10-17T06:30:32;51.95;;;4.18;;
35648;SDS011;21768;48.562;13.414;2022-10-17T06:32:58;68.50;;;4.63;;
35648;SDS011;21768;48.562;13.414;2022-10-17T06:35:23;91.20;;;4.78;;
35648;SDS011;21768;48.562;13.414;2022-10-17T06:37:48;62.72;;;5.85;;
35648;SDS011;21768;48.562;13.414;2022-10-17T06:40:14;69.25;;;5.32;;
35648;SDS011;21768;48.562;13.414;2022-10-17T06:42:41;69.15;;;4.90;;
35648;SDS011;21768;48.562;13.414;2022-10-17T06:45:07;59.95;;;5.18;;
35648;SDS011;21768;48.562;13.414;2022-10-17T06:47:33;54.78;;;5.63;;
35648;SDS011;21768;48.562;13.414;2022-10-17T06:49:59;86.28;;;5.53;;
35648;SDS011;21768;48.562;13.414;2022-10-17T06:52:25;51.53;;;5.50;;
35648;SDS011;21768;48.562;13.414;2022-10-17T06:54:50;74.85;;;5.88;;
35648;SDS011;21768;48.562;13.414;2022-10-17T06:57:16;71.47;;;5.75;;
35648;SDS011;21768;48.562;13.414;2022-10-17T06:59:42;64.80;;;6.50;;
35648;SDS011;21768;48.562;13.414;2022-10-17T07:02:10;41.67;;;6.32;;
35648;SDS011;21768;48.562;13.414;2022-10-17T07:04:36;60.60;;;6.20;;
35648;SDS011;21768;48.562;13.414;2022-10-17T07:07:01;53.65;;;6.43;;
35648;SDS011;21768;48.562;13.414;2022-10-17T07:09:28;92.68;;;6.20;;
35648;SDS011;21768;48.562;13.414;2022-10-17T07:11:53;66.60;;;6.07;;
35648;SDS011;21768;48.562;13.414;2022-10-17T07:14:19;78.80;;;5.90;;
35648;SDS011;21768;48.562;13.414;2022-10-17T07:16:44;108.95;;;8.80;;
35648;SDS011;21768;48.562;13.414;2022-10-17T07:19:10;81.38;;;5.90;;
35648;SDS011;21768;48.562;13.414;2022-10-17T07:21:35;42.63;;;5.70;;
35648;SDS011;21768;48.562;13.414;2022-10-17T07:24:01;88.10;;;6.53;;
35648;SDS011;21768;48.562;13.414;2022-10-17T07:26:26;60.80;;;6.45;;
35648;SDS011;21768;48.562;13.414;2022-10-17T07:28:52;117.53;;;7.35;;
35648;SDS011;21768;48.562;13.414;2022-10-17T07:31:19;101.80;;;6.38;;
35648;SDS011;21768;48.562;13.414;2022-10-17T07:33:46;65.97;;;7.03;;
35648;SDS011;21768;48.562;13.414;2022-10-17T07:36:12;83.07;;;7.40;;
35648;SDS011;21768;48.562;13.414;2022-10-17T07:38:42;61.90;;;7.95;;
35648;SDS011;21768;48.562;13.414;2022-10-17T07:41:07;64.25;;;8.07;;
35648;SDS011;21768;48.562;13.414;2022-10-17T07:43:35;59.45;;;8.32;;
35648;SDS011;21768;48.562;13.414;2022-10-17T07:46:01;85.40;;;9.75;;
35648;SDS011;21768;48.562;13.414;2022-10-17T07:48:27;129.75;;;9.88;;
35648;SDS011;21768;48.562;13.414;2022-10-17T07:50:53;90.30;;;9.50;;
35648;SDS011;21768;48.562;13.414;2022-10-17T07:53:19;94.60;;;8.82;;
35648;SDS011;21768;48.562;13.414;2022-10-17T07:55:44;47.28;;;9.65;;
35648;SDS011;21768;48.562;13.414;2022-10-17T07:58:12;58.05;;;8.73;;
35648;SDS011;21768;48.562;13.414;2022-10-17T08:00:37;48.55;;;9.43;;
35648;SDS011;21768;48.562;13.414;2022-10-17T08:03:03;60.53;;;9.68;;
35648;SDS011;21768;48.562;13.414;2022-10-17T08:05:30;66.32;;;8.98;;
35648;SDS011;21768;48.562;13.414;2022-10-17T08:07:55;60.95;;;8.65;;
35648;SDS011;21768;48.562;13.414;2022-10-17T08:10:21;109.78;;;9.15;;
35648;SDS011;21768;48.562;13.414;2022-10-17T08:12:51;104.80;;;9.60;;
35648;SDS011;21768;48.562;13.414;2022-10-17T08:15:21;123.07;;;9.43;;
35648;SDS011;21768;48.562;13.414;2022-10-17T08:17:47;122.75;;;9.43;;
35648;SDS011;21768;48.562;13.414;2022-10-17T08:20:13;95.57;;;9.77;;
35648;SDS011;21768;48.562;13.414;2022-10-17T08:22:38;167.15;;;10.27;;
35648;SDS011;21768;48.562;13.414;2022-10-17T08:25:04;160.25;;;9.43;;
35648;SDS011;21768;48.562;13.414;2022-10-17T08:27:31;76.13;;;9.02;;
35648;SDS011;21768;48.562;13.414;2022-10-17T08:29:57;64.15;;;9.57;;
35648;SDS011;21768;48.562;13.414;2022-10-17T08:32:24;114.60;;;10.35;;
35648;SDS011;21768;48.562;13.414;2022-10-17T08:34:51;65.38;;;10.68;;
35648;SDS011;21768;48.562;13.414;2022-10-17T08:37:17;122.95;;;10.00;;
35648;SDS011;21768;48.562;13.414;2022-10-17T08:39:43;83.10;;;10.23;;
35648;SDS011;21768;48.562;13.414;2022-10-17T08:47:59;53.80;;;11.15;;
35648;SDS011;21768;48.562;13.414;2022-10-17T08:50:37;75.65;;;10.68;;
35648;SDS011;21768;48.562;13.414;2022-10-17T08:55:54;50.85;;;10.70;;
35648;SDS011;21768;48.562;13.414;2022-10-17T08:58:21;44.70;;;10.57;;
35648;SDS011;21768;48.562;13.414;2022-10-17T09:00:54;58.72;;;11.57;;
35648;SDS011;21768;48.562;13.414;2022-10-17T09:06:54;78.63;;;11.10;;
35648;SDS011;21768;48.562;13.414;2022-10-17T09:12:08;82.97;;;11.88;;
35648;SDS011;21768;48.562;13.414;2022-10-17T09:17:29;63.03;;;12.32;;
35648;SDS011;21768;48.562;13.414;2022-10-17T09:20:23;51.58;;;11.88;;
35648;SDS011;21768;48.562;13.414;2022-10-17T09:22:55;68.45;;;12.02;;
35648;SDS011;21768;48.562;13.414;2022-10-17T09:25:21;62.42;;;12.15;;
35648;SDS011;21768;48.562;13.414;2022-10-17T09:27:48;34.17;;;12.05;;
35648;SDS011;21768;48.562;13.414;2022-10-17T09:30:22;47.53;;;12.63;;
35648;SDS011;21768;48.562;13.414;2022-10-17T09:32:49;27.80;;;12.60;;
35648;SDS011;21768;48.562;13.414;2022-10-17T09:35:15;32.45;;;12.57;;
35648;SDS011;21768;48.562;13.414;2022-10-17T09:37:42;32.45;;;13.07;;
35648;SDS011;21768;48.562;13.414;2022-10-17T09:40:16;33.70;;;13.45;;
35648;SDS011;21768;48.562;13.414;2022-10-17T09:42:46;41.40;;;13.63;;
35648;SDS011;21768;48.562;13.414;2022-10-17T09:47:49;25.10;;;13.05;;
35648;SDS011;21768;48.562;13.414;2022-10-17T09:50:26;26.80;;;13.57;;
35648;SDS011;21768;48.562;13.414;2022-10-17T09:52:54;29.45;;;13.57;;
35648;SDS011;21768;48.562;13.414;2022-10-17T09:55:26;31.98;;;15.07;;
35648;SDS011;21768;48.562;13.414;2022-10-17T09:58:01;30.52;;;13.40;;
35648;SDS011;21768;48.562;13.414;2022-10-17T10:00:34;28.42;;;14.00;;
35648;SDS011;21768;48.562;13.414;2022-10-17T10:05:37;27.17;;;14.43;;
35648;SDS011;21768;48.562;13.414;2022-10-17T10:08:04;23.58;;;14.95;;
35648;SDS011;21768;48.562;13.414;2022-10-17T10:10:40;24.15;;;14.55;;
35648;SDS011;21768;48.562;13.414;2022-10-17T10:15:39;24.90;;;14.32;;
35648;SDS011;21768;48.562;13.414;2022-10-17T10:21:01;30.92;;;15.77;;
35648;SDS011;21768;48.562;13.414;2022-10-17T10:23:30;23.05;;;15.07;;
35648;SDS011;21768;48.562;13.414;2022-10-17T10:25:56;23.63;;;14.30;;
35648;SDS011;21768;48.562;13.414;2022-10-17T10:28:28;23.98;;;14.65;;
35648;SDS011;21768;48.562;13.414;2022-10-17T10:31:05;22.73;;;14.77;;
35648;SDS011;21768;48.562;13.414;2022-10-17T10:33:33;22.48;;;13.70;;
35648;SDS011;21768;48.562;13.414;2022-10-17T10:36:04;21.50;;;13.48;;
35648;SDS011;21768;48.562;13.414;2022-10-17T10:38:32;19.48;;;13.20;;
35648;SDS011;21768;48.562;13.414;2022-10-17T10:41:02;20.80;;;13.60;;
35648;SDS011;21768;48.562;13.414;2022-10-17T10:46:05;20.23;;;13.45;;
35648;SDS011;21768;48.562;13.414;2022-10-17T10:48:49;22.73;;;14.10;;
35648;SDS011;21768;48.562;13.414;2022-10-17T10:51:18;19.77;;;14.00;;
35648;SDS011;21768;48.562;13.414;2022-10-17T10:56:49;20.48;;;12.68;;
35648;SDS011;21768;48.562;13.414;2022-10-17T10:59:22;22.23;;;13.63;;
35648;SDS011;21768;48.562;13.414;2022-10-17T11:04:39;19.60;;;12.98;;
35648;SDS011;21768;48.562;13.414;2022-10-17T11:10:11;20.58;;;12.90;;
35648;SDS011;21768;48.562;13.414;2022-10-17T11:12:51;25.88;;;13.73;;
35648;SDS011;21768;48.562;13.414;2022-10-17T11:25:45;17.33;;;12.80;;
35648;SDS011;21768;48.562;13.414;2022-10-17T11:28:16;27.45;;;12.85;;
35648;SDS011;21768;48.562;13.414;2022-10-17T11:33:17;16.63;;;12.30;;
35648;SDS011;21768;48.562;13.414;2022-10-17T11:35:49;18.55;;;12.30;;
35648;SDS011;21768;48.562;13.414;2022-10-17T11:40:46;17.92;;;12.68;;
35648;SDS011;21768;48.562;13.414;2022-10-17T11:45:47;20.75;;;12.15;;
35648;SDS011;21768;48.562;13.414;2022-10-17T11:48:22;17.98;;;12.82;;
35648;SDS011;21768;48.562;13.414;2022-10-17T11:51:09;16.75;;;13.02;;
35648;SDS011;21768;48.562;13.414;2022-10-17T11:54:01;19.73;;;12.60;;
35648;SDS011;21768;48.562;13.414;2022-10-17T11:59:38;21.75;;;14.50;;
35648;SDS011;21768;48.562;13.414;2022-10-17T12:12:50;24.63;;;15.45;;
35648;SDS011;21768;48.562;13.414;2022-10-17T12:17:45;23.80;;;15.48;;
35648;SDS011;21768;48.562;13.414;2022-10-17T12:22:48;22.55;;;15.10;;
35648;SDS011;21768;48.562;13.414;2022-10-17T12:25:36;33.15;;;15.48;;
35648;SDS011;21768;48.562;13.414;2022-10-17T12:34:23;27.45;;;15.52;;
35648;SDS011;21768;48.562;13.414;2022-10-17T12:46:44;25.25;;;16.05;;
35648;SDS011;21768;48.562;13.414;2022-10-17T12:54:30;21.98;;;14.52;;
35648;SDS011;21768;48.562;13.414;2022-10-17T12:57:08;24.13;;;14.50;;
35648;SDS011;21768;48.562;13.414;2022-10-17T12:59:42;19.92;;;14.38;;
35648;SDS011;21768;48.562;13.414;2022-10-17T13:02:08;27.92;;;14.43;;
35648;SDS011;21768;48.562;13.414;2022-10-17T13:04:45;19.02;;;13.40;;
35648;SDS011;21768;48.562;13.414;2022-10-17T13:07:17;17.92;;;13.85;;
35648;SDS011;21768;48.562;13.414;2022-10-17T13:09:45;18.52;;;13.73;;
35648;SDS011;21768;48.562;13.414;2022-10-17T13:12:12;22.88;;;14.05;;
35648;SDS011;21768;48.562;13.414;2022-10-17T13:14:42;23.45;;;15.43;;
35648;SDS011;21768;48.562;13.414;2022-10-17T13:17:26;20.30;;;15.80;;
35648;SDS011;21768;48.562;13.414;2022-10-17T13:19:55;19.33;;;14.93;;
35648;SDS011;21768;48.562;13.414;2022-10-17T13:22:22;27.27;;;14.55;;
35648;SDS011;21768;48.562;13.414;2022-10-17T13:24:49;19.75;;;14.95;;
35648;SDS011;21768;48.562;13.414;2022-10-17T13:29:50;21.55;;;14.95;;
35648;SDS011;21768;48.562;13.414;2022-10-17T13:32:16;17.25;;;13.63;;
35648;SDS011;21768;48.562;13.414;2022-10-17T13:34:41;23.00;;;15.80;;
35648;SDS011;21768;48.562;13.414;2022-10-17T13:37:09;20.90;;;15.45;;
35648;SDS011;21768;48.562;13.414;2022-10-17T13:39:41;19.40;;;14.48;;
35648;SDS011;21768;48.562;13.414;2022-10-17T13:42:29;19.23;;;13.45;;
35648;SDS011;21768;48.562;13.414;2022-10-17T13:44:55;20.90;;;14.68;;
35648;SDS011;21768;48.562;13.414;2022-10-17T13:47:26;26.70;;;15.15;;
35648;SDS011;21768;48.562;13.414;2022-10-17T13:49:54;20.52;;;14.43;;
35648;SDS011;21768;48.562;13.414;2022-10-17T13:52:25;18.67;;;15.52;;
35648;SDS011;21768;48.562;13.414;2022-10-17T13:54:53;19.48;;;14.23;;
35648;SDS011;21768;48.562;13.414;2022-10-17T13:59:45;19.27;;;14.93;;
35648;SDS011;21768;48.562;13.414;2022-10-17T14:02:14;29.23;;;14.23;;
35648;SDS011;21768;48.562;13.414;2022-10-17T14:04:58;21.00;;;14.52;;
35648;SDS011;21768;48.562;13.414;2022-10-17T14:10:29;21.15;;;14.63;;
35648;SDS011;21768;48.562;13.414;2022-10-17T14:12:55;22.08;;;14.45;;
35648;SDS011;21768;48.562;13.414;2022-10-17T14:15:24;19.95;;;14.95;;
35648;SDS011;21768;48.562;13.414;2022-10-17T14:17:53;19.02;;;14.30;;
35648;SDS011;21768;48.562;13.414;2022-10-17T14:20:21;18.40;;;14.60;;
35648;SDS011;21768;48.562;13.414;2022-10-17T14:22:48;17.77;;;14.55;;
35648;SDS011;21768;48.562;13.414;2022-10-17T14:30:45;33.20;;;17.52;;
35648;SDS011;21768;48.562;13.414;2022-10-17T14:33:30;29.38;;;17.80;;
35648;SDS011;21768;48.562;13.414;2022-10-17T14:35:56;32.40;;;19.15;;
35648;SDS011;21768;48.562;13.414;2022-10-17T14:38:24;29.23;;;17.85;;
35648;SDS011;21768;48.562;13.414;2022-10-17T14:40:52;31.45;;;18.90;;
35648;SDS011;21768;48.562;13.414;2022-10-17T14:43:22;30.52;;;19.63;;
35648;SDS011;21768;48.562;13.414;2022-10-17T14:45:50;28.45;;;18.40;;
35648;SDS011;21768;48.562;13.414;2022-10-17T14:48:16;32.92;;;20.20;;
35648;SDS011;21768;48.562;13.414;2022-10-17T14:53:41;33.28;;;20.02;;
35648;SDS011;21768;48.562;13.414;2022-10-17T14:56:25;29.40;;;17.65;;
35648;SDS011;21768;48.562;13.414;2022-10-17T14:58:57;35.03;;;21.75;;
35648;SDS011;21768;48.562;13.414;2022-10-17T15:01:23;30.92;;;20.08;;
35648;SDS011;21768;48.562;13.414;2022-10-17T15:03:48;34.17;;;20.77;;
35648;SDS011;21768;48.562;13.414;2022-10-17T15:06:21;33.85;;;20.42;;
35648;SDS011;21768;48.562;13.414;2022-10-17T15:08:50;30.05;;;17.92;;
35648;SDS011;21768;48.562;13.414;2022-10-17T15:11:16;41.90;;;18.27;;
35648;SDS011;21768;48.562;13.414;2022-10-17T15:13:41;35.78;;;19.88;;
35648;SDS011;21768;48.562;13.414;2022-10-17T15:16:14;36.72;;;19.83;;
35648;SDS011;21768;48.562;13.414;2022-10-17T15:18:43;27.65;;;17.95;;
35648;SDS011;21768;48.562;13.414;2022-10-17T15:21:10;32.60;;;19.30;;
35648;SDS011;21768;48.562;13.414;2022-10-17T15:23:37;35.28;;;19.95;;
35648;SDS011;21768;48.562;13.414;2022-10-17T15:28:39;35.03;;;19.38;;
35648;SDS011;21768;48.562;13.414;2022-10-17T15:31:05;31.10;;;18.15;;
35648;SDS011;21768;48.562;13.414;2022-10-17T15:33:30;34.97;;;20.42;;
35648;SDS011;21768;48.562;13.414;2022-10-17T15:35:56;35.50;;;20.10;;
35648;SDS011;21768;48.562;13.414;2022-10-17T15:38:21;34.10;;;19.65;;
35648;SDS011;21768;48.562;13.414;2022-10-17T15:44:08;36.25;;;21.23;;
35648;SDS011;21768;48.562;13.414;2022-10-17T15:46:34;40.38;;;21.02;;
35648;SDS011;21768;48.562;13.414;2022-10-17T15:49:01;32.85;;;20.83;;
35648;SDS011;21768;48.562;13.414;2022-10-17T15:51:28;40.88;;;22.48;;
35648;SDS011;21768;48.562;13.414;2022-10-17T15:53:54;36.40;;;21.15;;
35648;SDS011;21768;48.562;13.414;2022-10-17T15:56:33;34.97;;;21.48;;
35648;SDS011;21768;48.562;13.414;2022-10-17T15:59:07;39.58;;;22.27;;
35648;SDS011;21768;48.562;13.414;2022-10-17T16:01:37;41.97;;;22.35;;
35648;SDS011;21768;48.562;13.414;2022-10-17T16:04:03;38.92;;;21.85;;
35648;SDS011;21768;48.562;13.414;2022-10-17T16:06:28;42.92;;;22.73;;
35648;SDS011;21768;48.562;13.414;2022-10-17T16:08:54;38.80;;;21.05;;
35648;SDS011;21768;48.562;13.414;2022-10-17T16:14:00;43.05;;;23.20;;
35648;SDS011;21768;48.562;13.414;2022-10-17T16:16:27;43.60;;;22.02;;
35648;SDS011;21768;48.562;13.414;2022-10-17T16:18:53;38.95;;;21.42;;
35648;SDS011;21768;48.562;13.414;2022-10-17T16:21:19;44.70;;;24.02;;
35648;SDS011;21768;48.562;13.414;2022-10-17T16:23:47;43.70;;;23.48;;
35648;SDS011;21768;48.562;13.414;2022-10-17T16:26:12;43.15;;;21.55;;
35648;SDS011;21768;48.562;13.414;2022-10-17T16:28:40;46.38;;;23.33;;
35648;SDS011;21768;48.562;13.414;2022-10-17T16:31:12;51.25;;;23.35;;
35648;SDS011;21768;48.562;13.414;2022-10-17T16:33:40;43.60;;;22.87;;
35648;SDS011;21768;48.562;13.414;2022-10-17T16:36:06;41.65;;;22.00;;
35648;SDS011;21768;48.562;13.414;2022-10-17T16:38:31;42.95;;;22.75;;
35648;SDS011;21768;48.562;13.414;2022-10-17T16:40:57;44.80;;;23.77;;
35648;SDS011;21768;48.562;13.414;2022-10-17T16:43:23;42.05;;;22.55;;
35648;SDS011;21768;48.562;13.414;2022-10-17T16:45:48;41.75;;;22.63;;
35648;SDS011;21768;48.562;13.414;2022-10-17T16:48:13;46.28;;;23.48;;
35648;SDS011;21768;48.562;13.414;2022-10-17T16:50:39;39.45;;;23.23;;
35648;SDS011;21768;48.562;13.414;2022-10-17T16:53:04;46.20;;;23.20;;
35648;SDS011;21768;48.562;13.414;2022-10-17T16:55:30;46.72;;;24.02;;
35648;SDS011;21768;48.562;13.414;2022-10-17T16:57:55;49.70;;;24.42;;
35648;SDS011;21768;48.562;13.414;2022-10-17T17:00:21;39.25;;;22.52;;
35648;SDS011;21768;48.562;13.414;2022-10-17T17:02:46;50.63;;;27.20;;